LIMLLIPY

Guest
Details From LIML - Milano Linate
To LIPY - FALCONARA
Flight Number -
Tags generated
Created
Modified
Stats Distance 207 nm / 383 km
Max Altitude 21,500 ft / 6,553 m
Waypoints 3
Social Downloads 0
Likes 0
Share VATSIM

Download

Looking for another format? Having issues loading an existing format? Contact us
Advertisement - Login to hide

Notes

Basic altitude profile: - Ascent Rate: 2500ft/min - Ascent Speed: 250kts - Cruise Altitude: 35000ft - Cruise Speed: 420kts - Descent Rate: 1500ft/min - Descent Speed: 250kts

Route

LIML BOA LIPY

ID Type Via Altitude Latitude Longitude Leg Dist Tot Dist Heading (true) Name
O LIML APT - 0 ft / 0 m 45.45030˚ 9.27280˚ - 0 nm - Milano Linate
BOA VOR - 21,500 ft / 6,553 m 44.53694˚ 11.29055˚ 101 nm 101 nm 122° / 123° BOLOGNA VOR-DME
O LIPY APT - 0 ft / 0 m 43.61635˚ 13.36231˚ 105 nm 206 nm 121° / 122° FALCONARA

Altitude Profile

Advertisement - Login to hide

Weather


0- 5 10 15 20 25 30 35+ Temperature / ° C

Clouds and Precipitation
Forecast for 2018-05-20 18:00 UTC. Updated an hour ago

Ground ~20,000 ft ~40,000 ft Winds

LIML

Details ICAO LIML (LIN)
Name Milano Linate
Region Italy
Timezone Europe/Rome (UTC+2.0)
Stats Elevation 353 ft / 108 m (AMSL)
Location 45.450302° 9.272801°
Runways 2
Magnetic Variation 2.550° E

METAR

LIML 201820Z VRB04KT 5000 +TSRA BKN030CB BKN060 17/16 Q1016 RMK WS IN APCH 0200 FT NOSIG

Decode

TAF

TAF LIML 201700Z 2018/2118 VRB05KT 9999 BKN050 TEMPO 2018/2103 4000 TSRA

Decode

Departure Runways

ID Width Length Bearing (true) Bearing (mag) Surface Threshold Offset Overrun Length
17 72 ft / 22 m 1,975 ft / 602 m 175.64° 173.09° Asphalt 200 ft / 61 m 0 ft / 0 m
18 197 ft / 60 m 8,017 ft / 2,443 m 175.67° 173.12° Asphalt 0 ft / 0 m 190 ft / 58 m
35 72 ft / 22 m 1,975 ft / 602 m 355.64° 353.09° Asphalt 200 ft / 61 m 0 ft / 0 m
36 197 ft / 60 m 8,017 ft / 2,443 m 355.68° 353.13° Asphalt 0 ft / 0 m 980 ft / 299 m

LIPY

Details ICAO LIPY (AOI)
Name FALCONARA
Region Italy
Timezone Europe/Rome (UTC+2.0)
Stats Elevation 49 ft / 15 m (AMSL)
Location 43.616351° 13.362310°
Runways 1
Magnetic Variation 3.341° E

METAR

LIPY 201750Z 03004KT CAVOK 21/14 Q1013

Decode

TAF

TAF LIPY 201700Z 2018/2118 VRB05KT CAVOK BECMG 2108/2110 02010KT

Decode

Destination Runways

ID Width Length Bearing (true) Bearing (mag) Surface Threshold Offset Overrun Length
04 148 ft / 45 m 9,711 ft / 2,960 m 44.81° 41.47° Asphalt 641 ft / 195 m 0 ft / 0 m
22 148 ft / 45 m 9,711 ft / 2,960 m 224.83° 221.49° Asphalt 492 ft / 150 m 0 ft / 0 m

Approach Navaids

Runway Type Ident Frequency Range Bearing (true) Bearing (mag) Slope Elevation
22 Localiser IFA 111.90 MHz 18 nm / 33 km 224.79° 221.45° - 47 ft / 14 m (AMSL)
22 Glidescope IFA 111.90 MHz 10 nm / 19 km 224.82° 221.48° 3.50° 34 ft / 10 m (AMSL)
22 DME IFA 111.90 MHz 18 nm / 33 km - - - 50 ft / 15 m (AMSL)

Popular Alternatives